sensor_id;sensor_type;location;lat;lon;timestamp;P1;durP1;ratioP1;P2;durP2;ratioP2
55655;SDS011;41530;52.382;5.270;2022-09-17T00:00:37;6.32;;;1.00;;
55655;SDS011;41530;52.382;5.270;2022-09-17T00:03:04;9.85;;;1.20;;
55655;SDS011;41530;52.382;5.270;2022-09-17T00:05:31;4.70;;;1.13;;
55655;SDS011;41530;52.382;5.270;2022-09-17T00:07:58;5.78;;;1.17;;
55655;SDS011;41530;52.382;5.270;2022-09-17T00:10:25;4.80;;;0.90;;
55655;SDS011;41530;52.382;5.270;2022-09-17T00:12:51;6.13;;;1.20;;
55655;SDS011;41530;52.382;5.270;2022-09-17T00:15:18;11.90;;;1.40;;
55655;SDS011;41530;52.382;5.270;2022-09-17T00:17:44;6.57;;;1.17;;
55655;SDS011;41530;52.382;5.270;2022-09-17T00:20:11;7.60;;;1.38;;
55655;SDS011;41530;52.382;5.270;2022-09-17T00:22:38;4.05;;;0.90;;
55655;SDS011;41530;52.382;5.270;2022-09-17T00:25:05;7.82;;;1.33;;
55655;SDS011;41530;52.382;5.270;2022-09-17T00:27:33;7.57;;;1.38;;
55655;SDS011;41530;52.382;5.270;2022-09-17T00:30:00;5.70;;;1.20;;
55655;SDS011;41530;52.382;5.270;2022-09-17T00:32:27;4.25;;;1.20;;
55655;SDS011;41530;52.382;5.270;2022-09-17T00:34:53;3.75;;;0.80;;
55655;SDS011;41530;52.382;5.270;2022-09-17T00:37:20;6.75;;;1.27;;
55655;SDS011;41530;52.382;5.270;2022-09-17T00:39:47;6.57;;;1.20;;
55655;SDS011;41530;52.382;5.270;2022-09-17T00:42:14;8.75;;;1.30;;
55655;SDS011;41530;52.382;5.270;2022-09-17T00:49:51;6.00;;;1.15;;
55655;SDS011;41530;52.382;5.270;2022-09-17T00:52:30;8.63;;;1.17;;
55655;SDS011;41530;52.382;5.270;2022-09-17T00:55:05;4.00;;;1.17;;
55655;SDS011;41530;52.382;5.270;2022-09-17T00:57:35;6.65;;;1.13;;
55655;SDS011;41530;52.382;5.270;2022-09-17T01:00:04;3.75;;;1.00;;
55655;SDS011;41530;52.382;5.270;2022-09-17T01:02:31;5.18;;;0.98;;
55655;SDS011;41530;52.382;5.270;2022-09-17T01:04:59;4.57;;;1.23;;
55655;SDS011;41530;52.382;5.270;2022-09-17T01:09:59;2.78;;;0.80;;
55655;SDS011;41530;52.382;5.270;2022-09-17T01:15:33;5.10;;;0.70;;
55655;SDS011;41530;52.382;5.270;2022-09-17T01:20:53;2.75;;;0.70;;
55655;SDS011;41530;52.382;5.270;2022-09-17T01:23:51;5.13;;;0.90;;
55655;SDS011;41530;52.382;5.270;2022-09-17T01:37:37;6.38;;;0.90;;
55655;SDS011;41530;52.382;5.270;2022-09-17T01:40:24;6.93;;;1.17;;
55655;SDS011;41530;52.382;5.270;2022-09-17T01:43:04;4.85;;;0.93;;
55655;SDS011;41530;52.382;5.270;2022-09-17T01:45:47;3.90;;;0.70;;
55655;SDS011;41530;52.382;5.270;2022-09-17T01:48:17;4.07;;;0.93;;
55655;SDS011;41530;52.382;5.270;2022-09-17T01:50:52;4.68;;;0.80;;
55655;SDS011;41530;52.382;5.270;2022-09-17T01:53:23;6.97;;;1.00;;
55655;SDS011;41530;52.382;5.270;2022-09-17T01:56:09;5.55;;;1.10;;
55655;SDS011;41530;52.382;5.270;2022-09-17T01:58:41;4.75;;;0.90;;
55655;SDS011;41530;52.382;5.270;2022-09-17T02:01:14;2.92;;;0.70;;
55655;SDS011;41530;52.382;5.270;2022-09-17T02:06:28;6.10;;;0.88;;
55655;SDS011;41530;52.382;5.270;2022-09-17T02:09:00;4.68;;;0.80;;
55655;SDS011;41530;52.382;5.270;2022-09-17T02:11:37;6.97;;;1.25;;
55655;SDS011;41530;52.382;5.270;2022-09-17T02:14:08;5.15;;;0.98;;
55655;SDS011;41530;52.382;5.270;2022-09-17T02:16:42;3.42;;;0.77;;
55655;SDS011;41530;52.382;5.270;2022-09-17T02:19:23;5.88;;;0.93;;
55655;SDS011;41530;52.382;5.270;2022-09-17T02:22:01;3.33;;;0.77;;
55655;SDS011;41530;52.382;5.270;2022-09-17T02:24:48;3.42;;;0.75;;
55655;SDS011;41530;52.382;5.270;2022-09-17T02:27:30;7.20;;;1.10;;
55655;SDS011;41530;52.382;5.270;2022-09-17T02:29:59;3.30;;;0.80;;
55655;SDS011;41530;52.382;5.270;2022-09-17T02:32:25;3.45;;;0.65;;
55655;SDS011;41530;52.382;5.270;2022-09-17T02:34:52;5.18;;;0.90;;
55655;SDS011;41530;52.382;5.270;2022-09-17T02:37:19;8.35;;;0.95;;
55655;SDS011;41530;52.382;5.270;2022-09-17T02:39:46;6.28;;;1.02;;
55655;SDS011;41530;52.382;5.270;2022-09-17T02:45:09;4.53;;;0.93;;
55655;SDS011;41530;52.382;5.270;2022-09-17T02:47:53;5.93;;;0.93;;
55655;SDS011;41530;52.382;5.270;2022-09-17T02:53:25;6.80;;;0.90;;
55655;SDS011;41530;52.382;5.270;2022-09-17T02:56:09;6.13;;;1.10;;
55655;SDS011;41530;52.382;5.270;2022-09-17T02:58:55;2.88;;;0.80;;
55655;SDS011;41530;52.382;5.270;2022-09-17T03:01:26;9.23;;;1.10;;
55655;SDS011;41530;52.382;5.270;2022-09-17T03:04:10;5.38;;;1.52;;
55655;SDS011;41530;52.382;5.270;2022-09-17T03:06:41;7.78;;;1.00;;
55655;SDS011;41530;52.382;5.270;2022-09-17T03:09:10;5.68;;;1.10;;
55655;SDS011;41530;52.382;5.270;2022-09-17T03:11:36;4.32;;;0.73;;
55655;SDS011;41530;52.382;5.270;2022-09-17T03:14:03;5.03;;;0.82;;
55655;SDS011;41530;52.382;5.270;2022-09-17T03:16:29;6.15;;;1.00;;
55655;SDS011;41530;52.382;5.270;2022-09-17T03:18:56;6.82;;;1.58;;
55655;SDS011;41530;52.382;5.270;2022-09-17T03:21:23;8.52;;;1.65;;
55655;SDS011;41530;52.382;5.270;2022-09-17T03:23:49;5.93;;;1.00;;
55655;SDS011;41530;52.382;5.270;2022-09-17T03:26:16;6.32;;;1.10;;
55655;SDS011;41530;52.382;5.270;2022-09-17T03:28:42;8.45;;;1.30;;
55655;SDS011;41530;52.382;5.270;2022-09-17T03:31:09;5.85;;;1.30;;
55655;SDS011;41530;52.382;5.270;2022-09-17T03:33:35;11.07;;;1.70;;
55655;SDS011;41530;52.382;5.270;2022-09-17T03:36:02;8.23;;;1.00;;
55655;SDS011;41530;52.382;5.270;2022-09-17T03:38:29;3.78;;;1.10;;
55655;SDS011;41530;52.382;5.270;2022-09-17T03:40:59;6.43;;;1.08;;
55655;SDS011;41530;52.382;5.270;2022-09-17T03:43:27;5.63;;;1.15;;
55655;SDS011;41530;52.382;5.270;2022-09-17T03:45:54;6.03;;;1.08;;
55655;SDS011;41530;52.382;5.270;2022-09-17T03:48:21;8.48;;;1.42;;
55655;SDS011;41530;52.382;5.270;2022-09-17T03:50:48;6.75;;;1.13;;
55655;SDS011;41530;52.382;5.270;2022-09-17T03:53:14;7.28;;;1.20;;
55655;SDS011;41530;52.382;5.270;2022-09-17T03:55:41;12.40;;;1.13;;
55655;SDS011;41530;52.382;5.270;2022-09-17T03:58:08;6.68;;;1.25;;
55655;SDS011;41530;52.382;5.270;2022-09-17T04:00:34;4.63;;;1.30;;
55655;SDS011;41530;52.382;5.270;2022-09-17T04:03:04;7.00;;;0.90;;
55655;SDS011;41530;52.382;5.270;2022-09-17T04:05:31;6.78;;;1.17;;
55655;SDS011;41530;52.382;5.270;2022-09-17T04:07:58;6.38;;;0.88;;
55655;SDS011;41530;52.382;5.270;2022-09-17T04:10:24;5.93;;;0.93;;
55655;SDS011;41530;52.382;5.270;2022-09-17T04:12:51;6.20;;;0.93;;
55655;SDS011;41530;52.382;5.270;2022-09-17T04:15:17;3.35;;;0.80;;
55655;SDS011;41530;52.382;5.270;2022-09-17T04:17:44;4.82;;;1.58;;
55655;SDS011;41530;52.382;5.270;2022-09-17T04:20:10;7.90;;;1.13;;
55655;SDS011;41530;52.382;5.270;2022-09-17T04:22:37;7.30;;;1.02;;
55655;SDS011;41530;52.382;5.270;2022-09-17T04:25:04;5.03;;;1.00;;
55655;SDS011;41530;52.382;5.270;2022-09-17T04:27:30;4.72;;;0.90;;
55655;SDS011;41530;52.382;5.270;2022-09-17T04:29:57;6.03;;;0.80;;
55655;SDS011;41530;52.382;5.270;2022-09-17T04:32:23;6.05;;;0.95;;
55655;SDS011;41530;52.382;5.270;2022-09-17T04:34:50;2.70;;;0.70;;
55655;SDS011;41530;52.382;5.270;2022-09-17T04:37:16;5.55;;;0.90;;
55655;SDS011;41530;52.382;5.270;2022-09-17T04:39:44;7.28;;;0.70;;
55655;SDS011;41530;52.382;5.270;2022-09-17T04:42:10;6.63;;;0.98;;
55655;SDS011;41530;52.382;5.270;2022-09-17T04:44:37;3.35;;;0.90;;
55655;SDS011;41530;52.382;5.270;2022-09-17T04:47:03;3.92;;;0.70;;
55655;SDS011;41530;52.382;5.270;2022-09-17T04:49:30;3.03;;;0.85;;
55655;SDS011;41530;52.382;5.270;2022-09-17T04:51:57;5.53;;;0.73;;
55655;SDS011;41530;52.382;5.270;2022-09-17T04:54:24;3.55;;;0.60;;
55655;SDS011;41530;52.382;5.270;2022-09-17T04:56:51;3.35;;;0.65;;
55655;SDS011;41530;52.382;5.270;2022-09-17T04:59:17;1.67;;;0.50;;
55655;SDS011;41530;52.382;5.270;2022-09-17T05:01:44;4.18;;;0.68;;
55655;SDS011;41530;52.382;5.270;2022-09-17T05:04:11;4.93;;;0.57;;
55655;SDS011;41530;52.382;5.270;2022-09-17T05:06:37;7.00;;;1.00;;
55655;SDS011;41530;52.382;5.270;2022-09-17T05:09:04;3.88;;;0.50;;
55655;SDS011;41530;52.382;5.270;2022-09-17T05:11:30;4.65;;;1.10;;
55655;SDS011;41530;52.382;5.270;2022-09-17T05:13:57;6.18;;;0.95;;
55655;SDS011;41530;52.382;5.270;2022-09-17T05:16:23;3.97;;;0.70;;
55655;SDS011;41530;52.382;5.270;2022-09-17T05:18:50;3.30;;;0.57;;
55655;SDS011;41530;52.382;5.270;2022-09-17T05:21:17;2.40;;;0.50;;
55655;SDS011;41530;52.382;5.270;2022-09-17T05:23:44;10.20;;;1.13;;
55655;SDS011;41530;52.382;5.270;2022-09-17T05:26:12;4.57;;;0.93;;
55655;SDS011;41530;52.382;5.270;2022-09-17T05:28:40;1.52;;;0.40;;
55655;SDS011;41530;52.382;5.270;2022-09-17T05:31:08;8.45;;;0.90;;
55655;SDS011;41530;52.382;5.270;2022-09-17T05:33:34;7.25;;;0.93;;
55655;SDS011;41530;52.382;5.270;2022-09-17T05:36:01;1.83;;;0.55;;
55655;SDS011;41530;52.382;5.270;2022-09-17T05:38:29;5.60;;;0.60;;
55655;SDS011;41530;52.382;5.270;2022-09-17T05:40:56;2.83;;;0.63;;
55655;SDS011;41530;52.382;5.270;2022-09-17T05:43:22;16.25;;;0.90;;
55655;SDS011;41530;52.382;5.270;2022-09-17T05:45:49;14.57;;;0.93;;
55655;SDS011;41530;52.382;5.270;2022-09-17T05:48:15;4.30;;;0.60;;
55655;SDS011;41530;52.382;5.270;2022-09-17T05:50:42;5.00;;;0.95;;
55655;SDS011;41530;52.382;5.270;2022-09-17T05:53:10;5.35;;;0.73;;
55655;SDS011;41530;52.382;5.270;2022-09-17T05:55:37;4.90;;;0.65;;
55655;SDS011;41530;52.382;5.270;2022-09-17T05:58:11;5.20;;;0.80;;
55655;SDS011;41530;52.382;5.270;2022-09-17T06:00:40;8.50;;;0.75;;
55655;SDS011;41530;52.382;5.270;2022-09-17T06:03:07;3.83;;;0.55;;
55655;SDS011;41530;52.382;5.270;2022-09-17T06:05:36;6.47;;;0.68;;
55655;SDS011;41530;52.382;5.270;2022-09-17T06:08:02;2.72;;;0.70;;
55655;SDS011;41530;52.382;5.270;2022-09-17T06:10:29;2.95;;;0.60;;
55655;SDS011;41530;52.382;5.270;2022-09-17T06:12:56;4.63;;;0.60;;
55655;SDS011;41530;52.382;5.270;2022-09-17T06:15:26;2.10;;;0.70;;
55655;SDS011;41530;52.382;5.270;2022-09-17T06:17:53;5.72;;;0.70;;
55655;SDS011;41530;52.382;5.270;2022-09-17T06:20:20;5.50;;;0.77;;
55655;SDS011;41530;52.382;5.270;2022-09-17T06:22:46;2.67;;;0.88;;
55655;SDS011;41530;52.382;5.270;2022-09-17T06:25:13;2.20;;;0.55;;
55655;SDS011;41530;52.382;5.270;2022-09-17T06:27:40;4.43;;;0.60;;
55655;SDS011;41530;52.382;5.270;2022-09-17T06:30:06;2.63;;;0.55;;
55655;SDS011;41530;52.382;5.270;2022-09-17T06:32:33;2.88;;;0.65;;
55655;SDS011;41530;52.382;5.270;2022-09-17T06:35:00;2.47;;;0.70;;
55655;SDS011;41530;52.382;5.270;2022-09-17T06:37:27;2.85;;;0.50;;
55655;SDS011;41530;52.382;5.270;2022-09-17T06:39:55;3.63;;;0.52;;
55655;SDS011;41530;52.382;5.270;2022-09-17T06:42:22;3.33;;;0.60;;
55655;SDS011;41530;52.382;5.270;2022-09-17T06:44:48;2.05;;;0.75;;
55655;SDS011;41530;52.382;5.270;2022-09-17T06:47:15;4.18;;;0.70;;
55655;SDS011;41530;52.382;5.270;2022-09-17T06:49:41;4.30;;;0.60;;
55655;SDS011;41530;52.382;5.270;2022-09-17T06:52:08;5.45;;;0.60;;
55655;SDS011;41530;52.382;5.270;2022-09-17T06:54:34;3.78;;;0.75;;
55655;SDS011;41530;52.382;5.270;2022-09-17T06:57:01;3.03;;;0.50;;
55655;SDS011;41530;52.382;5.270;2022-09-17T06:59:27;4.47;;;0.68;;
55655;SDS011;41530;52.382;5.270;2022-09-17T07:01:54;2.60;;;0.60;;
55655;SDS011;41530;52.382;5.270;2022-09-17T07:04:21;5.13;;;0.80;;
55655;SDS011;41530;52.382;5.270;2022-09-17T07:06:48;3.63;;;0.80;;
55655;SDS011;41530;52.382;5.270;2022-09-17T07:09:14;6.10;;;0.55;;
55655;SDS011;41530;52.382;5.270;2022-09-17T07:11:41;5.03;;;0.50;;
55655;SDS011;41530;52.382;5.270;2022-09-17T07:14:07;3.70;;;0.70;;
55655;SDS011;41530;52.382;5.270;2022-09-17T07:16:34;6.97;;;0.88;;
55655;SDS011;41530;52.382;5.270;2022-09-17T07:19:02;3.55;;;0.65;;
55655;SDS011;41530;52.382;5.270;2022-09-17T07:21:29;7.30;;;0.80;;
55655;SDS011;41530;52.382;5.270;2022-09-17T07:23:55;2.90;;;0.68;;
55655;SDS011;41530;52.382;5.270;2022-09-17T07:26:22;3.13;;;0.55;;
55655;SDS011;41530;52.382;5.270;2022-09-17T07:28:49;3.35;;;0.70;;
55655;SDS011;41530;52.382;5.270;2022-09-17T07:31:15;5.65;;;0.70;;
55655;SDS011;41530;52.382;5.270;2022-09-17T07:33:42;3.30;;;0.60;;
55655;SDS011;41530;52.382;5.270;2022-09-17T07:36:10;5.32;;;0.80;;
55655;SDS011;41530;52.382;5.270;2022-09-17T07:38:38;3.70;;;1.00;;
55655;SDS011;41530;52.382;5.270;2022-09-17T07:41:12;1.42;;;0.32;;
55655;SDS011;41530;52.382;5.270;2022-09-17T07:43:40;1.75;;;0.65;;
55655;SDS011;41530;52.382;5.270;2022-09-17T07:46:12;3.53;;;0.55;;
55655;SDS011;41530;52.382;5.270;2022-09-17T07:48:41;2.88;;;0.47;;
55655;SDS011;41530;52.382;5.270;2022-09-17T07:51:12;4.13;;;0.70;;
55655;SDS011;41530;52.382;5.270;2022-09-17T07:53:40;4.00;;;0.57;;
55655;SDS011;41530;52.382;5.270;2022-09-17T07:56:07;3.42;;;0.70;;
55655;SDS011;41530;52.382;5.270;2022-09-17T07:58:37;4.65;;;0.50;;
55655;SDS011;41530;52.382;5.270;2022-09-17T08:01:07;2.25;;;0.60;;
55655;SDS011;41530;52.382;5.270;2022-09-17T08:03:35;2.28;;;0.70;;
55655;SDS011;41530;52.382;5.270;2022-09-17T08:06:04;1.55;;;0.70;;
55655;SDS011;41530;52.382;5.270;2022-09-17T08:08:38;5.05;;;0.50;;
55655;SDS011;41530;52.382;5.270;2022-09-17T08:11:06;2.35;;;0.60;;
55655;SDS011;41530;52.382;5.270;2022-09-17T08:13:37;3.08;;;0.50;;
55655;SDS011;41530;52.382;5.270;2022-09-17T08:16:06;1.98;;;0.60;;
55655;SDS011;41530;52.382;5.270;2022-09-17T08:18:34;2.90;;;0.70;;
55655;SDS011;41530;52.382;5.270;2022-09-17T08:21:02;1.17;;;0.73;;
55655;SDS011;41530;52.382;5.270;2022-09-17T08:23:32;3.30;;;0.70;;
55655;SDS011;41530;52.382;5.270;2022-09-17T08:26:00;2.63;;;0.43;;
55655;SDS011;41530;52.382;5.270;2022-09-17T08:28:28;2.40;;;0.60;;
55655;SDS011;41530;52.382;5.270;2022-09-17T08:31:16;4.07;;;0.47;;
55655;SDS011;41530;52.382;5.270;2022-09-17T08:33:45;2.88;;;0.57;;
55655;SDS011;41530;52.382;5.270;2022-09-17T08:36:12;6.13;;;1.00;;
55655;SDS011;41530;52.382;5.270;2022-09-17T08:38:41;3.28;;;0.70;;
55655;SDS011;41530;52.382;5.270;2022-09-17T08:46:31;2.40;;;0.57;;
55655;SDS011;41530;52.382;5.270;2022-09-17T08:49:06;1.20;;;0.50;;
55655;SDS011;41530;52.382;5.270;2022-09-17T09:00:19;3.22;;;0.75;;
55655;SDS011;41530;52.382;5.270;2022-09-17T09:05:46;4.50;;;0.70;;
55655;SDS011;41530;52.382;5.270;2022-09-17T09:08:18;3.33;;;0.65;;
55655;SDS011;41530;52.382;5.270;2022-09-17T09:11:01;2.17;;;0.35;;
55655;SDS011;41530;52.382;5.270;2022-09-17T09:13:33;1.45;;;0.60;;
55655;SDS011;41530;52.382;5.270;2022-09-17T09:16:05;2.50;;;0.50;;
55655;SDS011;41530;52.382;5.270;2022-09-17T09:18:37;2.17;;;0.50;;
55655;SDS011;41530;52.382;5.270;2022-09-17T09:32:25;2.67;;;0.75;;
55655;SDS011;41530;52.382;5.270;2022-09-17T09:35:18;3.10;;;0.40;;
55655;SDS011;41530;52.382;5.270;2022-09-17T09:40:50;1.77;;;0.43;;
55655;SDS011;41530;52.382;5.270;2022-09-17T09:43:35;5.50;;;0.80;;
55655;SDS011;41530;52.382;5.270;2022-09-17T09:46:37;1.10;;;0.28;;
55655;SDS011;41530;52.382;5.270;2022-09-17T09:57:34;2.55;;;0.50;;
55655;SDS011;41530;52.382;5.270;2022-09-17T10:00:17;1.35;;;0.45;;
55655;SDS011;41530;52.382;5.270;2022-09-17T10:03:19;1.80;;;0.40;;
55655;SDS011;41530;52.382;5.270;2022-09-17T10:08:34;2.92;;;0.63;;
55655;SDS011;41530;52.382;5.270;2022-09-17T10:11:25;6.20;;;0.60;;
55655;SDS011;41530;52.382;5.270;2022-09-17T10:14:12;3.30;;;0.65;;
55655;SDS011;41530;52.382;5.270;2022-09-17T10:16:39;1.55;;;0.50;;
55655;SDS011;41530;52.382;5.270;2022-09-17T10:21:38;2.75;;;0.70;;
55655;SDS011;41530;52.382;5.270;2022-09-17T10:27:03;1.95;;;0.50;;
55655;SDS011;41530;52.382;5.270;2022-09-17T10:29:32;1.63;;;0.47;;
55655;SDS011;41530;52.382;5.270;2022-09-17T10:31:59;0.60;;;0.20;;
55655;SDS011;41530;52.382;5.270;2022-09-17T10:34:29;3.53;;;0.50;;
55655;SDS011;41530;52.382;5.270;2022-09-17T10:36:56;1.60;;;0.50;;
55655;SDS011;41530;52.382;5.270;2022-09-17T10:44:29;4.88;;;1.10;;
55655;SDS011;41530;52.382;5.270;2022-09-17T10:47:13;2.35;;;0.57;;
55655;SDS011;41530;52.382;5.270;2022-09-17T10:49:47;2.72;;;0.65;;
55655;SDS011;41530;52.382;5.270;2022-09-17T11:00:22;2.85;;;0.65;;
55655;SDS011;41530;52.382;5.270;2022-09-17T11:05:28;1.00;;;0.30;;
55655;SDS011;41530;52.382;5.270;2022-09-17T11:08:15;2.13;;;0.47;;
55655;SDS011;41530;52.382;5.270;2022-09-17T11:10:57;2.22;;;0.55;;
55655;SDS011;41530;52.382;5.270;2022-09-17T11:14:23;3.50;;;0.47;;
55655;SDS011;41530;52.382;5.270;2022-09-17T11:21:39;2.63;;;0.60;;
55655;SDS011;41530;52.382;5.270;2022-09-17T11:37:29;4.25;;;0.77;;
55655;SDS011;41530;52.382;5.270;2022-09-17T11:39:58;2.30;;;0.43;;
55655;SDS011;41530;52.382;5.270;2022-09-17T11:42:31;4.10;;;0.70;;
55655;SDS011;41530;52.382;5.270;2022-09-17T11:45:12;2.58;;;0.50;;
55655;SDS011;41530;52.382;5.270;2022-09-17T11:47:48;2.55;;;0.52;;
55655;SDS011;41530;52.382;5.270;2022-09-17T11:50:25;2.15;;;0.65;;
55655;SDS011;41530;52.382;5.270;2022-09-17T11:55:52;2.88;;;0.52;;
55655;SDS011;41530;52.382;5.270;2022-09-17T12:01:12;2.53;;;0.50;;
55655;SDS011;41530;52.382;5.270;2022-09-17T12:03:49;2.80;;;0.73;;
55655;SDS011;41530;52.382;5.270;2022-09-17T12:06:34;5.20;;;0.80;;
55655;SDS011;41530;52.382;5.270;2022-09-17T12:09:09;5.38;;;1.00;;
55655;SDS011;41530;52.382;5.270;2022-09-17T12:14:25;1.67;;;0.60;;
55655;SDS011;41530;52.382;5.270;2022-09-17T12:17:01;4.22;;;0.95;;
55655;SDS011;41530;52.382;5.270;2022-09-17T12:19:36;3.13;;;0.85;;
55655;SDS011;41530;52.382;5.270;2022-09-17T12:22:12;4.60;;;0.85;;
55655;SDS011;41530;52.382;5.270;2022-09-17T12:24:44;2.42;;;0.77;;
55655;SDS011;41530;52.382;5.270;2022-09-17T12:58:16;2.17;;;0.80;;
55655;SDS011;41530;52.382;5.270;2022-09-17T13:01:02;3.13;;;0.70;;
55655;SDS011;41530;52.382;5.270;2022-09-17T13:03:39;5.38;;;1.10;;
55655;SDS011;41530;52.382;5.270;2022-09-17T13:23:56;4.82;;;1.52;;
55655;SDS011;41530;52.382;5.270;2022-09-17T13:26:34;7.05;;;0.70;;
55655;SDS011;41530;52.382;5.270;2022-09-17T13:29:02;6.18;;;0.68;;
55655;SDS011;41530;52.382;5.270;2022-09-17T13:34:00;4.90;;;0.80;;
55655;SDS011;41530;52.382;5.270;2022-09-17T13:36:37;1.45;;;0.70;;
55655;SDS011;41530;52.382;5.270;2022-09-17T13:39:08;6.75;;;1.08;;
55655;SDS011;41530;52.382;5.270;2022-09-17T13:41:40;8.07;;;0.85;;
55655;SDS011;41530;52.382;5.270;2022-09-17T13:44:08;3.22;;;0.70;;
55655;SDS011;41530;52.382;5.270;2022-09-17T13:46:36;5.80;;;1.05;;
55655;SDS011;41530;52.382;5.270;2022-09-17T13:49:05;1.77;;;0.77;;
55655;SDS011;41530;52.382;5.270;2022-09-17T13:56:38;2.80;;;0.80;;
55655;SDS011;41530;52.382;5.270;2022-09-17T13:59:26;2.40;;;0.80;;
55655;SDS011;41530;52.382;5.270;2022-09-17T14:02:00;2.55;;;0.75;;
55655;SDS011;41530;52.382;5.270;2022-09-17T14:10:01;5.13;;;0.75;;
55655;SDS011;41530;52.382;5.270;2022-09-17T14:12:50;2.53;;;0.73;;
55655;SDS011;41530;52.382;5.270;2022-09-17T14:23:41;2.80;;;0.73;;
55655;SDS011;41530;52.382;5.270;2022-09-17T14:26:11;3.72;;;0.73;;
55655;SDS011;41530;52.382;5.270;2022-09-17T14:28:49;2.00;;;0.80;;
55655;SDS011;41530;52.382;5.270;2022-09-17T14:31:30;3.85;;;0.75;;
55655;SDS011;41530;52.382;5.270;2022-09-17T14:34:01;5.10;;;0.90;;
55655;SDS011;41530;52.382;5.270;2022-09-17T14:36:30;2.20;;;0.70;;
55655;SDS011;41530;52.382;5.270;2022-09-17T14:39:03;3.55;;;0.80;;
55655;SDS011;41530;52.382;5.270;2022-09-17T14:41:36;4.60;;;0.80;;
55655;SDS011;41530;52.382;5.270;2022-09-17T14:44:20;3.72;;;1.10;;
55655;SDS011;41530;52.382;5.270;2022-09-17T14:46:53;5.95;;;1.10;;
55655;SDS011;41530;52.382;5.270;2022-09-17T14:49:31;7.03;;;1.10;;
55655;SDS011;41530;52.382;5.270;2022-09-17T14:52:00;5.18;;;1.40;;
55655;SDS011;41530;52.382;5.270;2022-09-17T14:54:31;5.05;;;1.10;;
55655;SDS011;41530;52.382;5.270;2022-09-17T15:02:39;2.47;;;0.85;;
55655;SDS011;41530;52.382;5.270;2022-09-17T15:10:38;4.75;;;1.10;;
55655;SDS011;41530;52.382;5.270;2022-09-17T15:13:11;5.63;;;1.20;;
55655;SDS011;41530;52.382;5.270;2022-09-17T15:15:49;4.75;;;1.00;;
55655;SDS011;41530;52.382;5.270;2022-09-17T15:18:21;2.65;;;0.70;;
55655;SDS011;41530;52.382;5.270;2022-09-17T15:20:56;7.88;;;1.08;;
55655;SDS011;41530;52.382;5.270;2022-09-17T15:23:27;5.97;;;1.10;;
55655;SDS011;41530;52.382;5.270;2022-09-17T15:25:57;5.13;;;1.17;;
55655;SDS011;41530;52.382;5.270;2022-09-17T15:28:27;3.83;;;0.98;;
55655;SDS011;41530;52.382;5.270;2022-09-17T15:31:21;4.80;;;0.85;;
55655;SDS011;41530;52.382;5.270;2022-09-17T15:33:48;7.50;;;1.27;;
55655;SDS011;41530;52.382;5.270;2022-09-17T15:36:22;4.85;;;1.00;;
55655;SDS011;41530;52.382;5.270;2022-09-17T15:38:52;3.58;;;1.13;;
55655;SDS011;41530;52.382;5.270;2022-09-17T15:43:52;3.65;;;0.90;;
55655;SDS011;41530;52.382;5.270;2022-09-17T15:46:38;2.85;;;0.90;;
55655;SDS011;41530;52.382;5.270;2022-09-17T15:49:23;3.13;;;0.80;;
55655;SDS011;41530;52.382;5.270;2022-09-17T15:54:53;3.03;;;1.05;;
55655;SDS011;41530;52.382;5.270;2022-09-17T15:57:19;3.35;;;1.02;;
55655;SDS011;41530;52.382;5.270;2022-09-17T15:59:47;5.03;;;0.98;;
55655;SDS011;41530;52.382;5.270;2022-09-17T16:02:24;3.72;;;0.82;;
55655;SDS011;41530;52.382;5.270;2022-09-17T16:05:41;2.65;;;0.73;;
55655;SDS011;41530;52.382;5.270;2022-09-17T16:07:44;4.80;;;1.20;;
55655;SDS011;41530;52.382;5.270;2022-09-17T16:10:12;3.92;;;1.20;;
55655;SDS011;41530;52.382;5.270;2022-09-17T16:12:39;8.18;;;1.40;;
55655;SDS011;41530;52.382;5.270;2022-09-17T16:15:06;6.88;;;1.63;;
55655;SDS011;41530;52.382;5.270;2022-09-17T16:17:43;7.07;;;1.73;;
55655;SDS011;41530;52.382;5.270;2022-09-17T16:22:49;6.85;;;1.60;;
55655;SDS011;41530;52.382;5.270;2022-09-17T16:25:18;6.82;;;2.00;;
55655;SDS011;41530;52.382;5.270;2022-09-17T16:28:09;4.53;;;1.40;;
55655;SDS011;41530;52.382;5.270;2022-09-17T16:30:39;7.03;;;1.52;;
55655;SDS011;41530;52.382;5.270;2022-09-17T16:33:12;6.75;;;1.90;;
55655;SDS011;41530;52.382;5.270;2022-09-17T16:35:40;7.13;;;1.63;;
55655;SDS011;41530;52.382;5.270;2022-09-17T16:38:07;8.90;;;1.45;;
55655;SDS011;41530;52.382;5.270;2022-09-17T16:40:38;5.72;;;1.50;;
55655;SDS011;41530;52.382;5.270;2022-09-17T16:43:10;5.32;;;1.10;;
55655;SDS011;41530;52.382;5.270;2022-09-17T16:45:36;3.78;;;1.38;;
55655;SDS011;41530;52.382;5.270;2022-09-17T16:48:03;4.60;;;1.33;;
55655;SDS011;41530;52.382;5.270;2022-09-17T16:50:30;3.85;;;1.38;;
55655;SDS011;41530;52.382;5.270;2022-09-17T16:52:57;9.15;;;1.10;;
55655;SDS011;41530;52.382;5.270;2022-09-17T16:55:30;4.88;;;1.40;;
55655;SDS011;41530;52.382;5.270;2022-09-17T16:57:56;3.40;;;1.38;;
55655;SDS011;41530;52.382;5.270;2022-09-17T17:00:24;5.57;;;1.20;;
55655;SDS011;41530;52.382;5.270;2022-09-17T17:02:54;2.92;;;1.00;;
55655;SDS011;41530;52.382;5.270;2022-09-17T17:05:22;3.08;;;0.95;;
55655;SDS011;41530;52.382;5.270;2022-09-17T17:07:50;3.22;;;1.10;;
55655;SDS011;41530;52.382;5.270;2022-09-17T17:10:17;3.70;;;1.05;;
55655;SDS011;41530;52.382;5.270;2022-09-17T17:12:45;3.53;;;1.23;;
55655;SDS011;41530;52.382;5.270;2022-09-17T17:15:12;2.78;;;1.20;;
55655;SDS011;41530;52.382;5.270;2022-09-17T17:17:38;3.65;;;1.05;;
55655;SDS011;41530;52.382;5.270;2022-09-17T17:20:06;3.60;;;1.27;;
55655;SDS011;41530;52.382;5.270;2022-09-17T17:22:41;3.00;;;1.00;;
55655;SDS011;41530;52.382;5.270;2022-09-17T17:25:09;3.28;;;1.13;;
55655;SDS011;41530;52.382;5.270;2022-09-17T17:27:37;3.90;;;1.00;;
55655;SDS011;41530;52.382;5.270;2022-09-17T17:30:05;3.90;;;1.13;;
55655;SDS011;41530;52.382;5.270;2022-09-17T17:32:33;5.88;;;1.17;;
55655;SDS011;41530;52.382;5.270;2022-09-17T17:35:01;2.20;;;1.08;;
55655;SDS011;41530;52.382;5.270;2022-09-17T17:37:28;5.43;;;0.95;;
55655;SDS011;41530;52.382;5.270;2022-09-17T17:39:54;4.13;;;1.27;;
55655;SDS011;41530;52.382;5.270;2022-09-17T17:42:23;2.88;;;0.70;;
55655;SDS011;41530;52.382;5.270;2022-09-17T17:44:49;2.15;;;0.82;;
55655;SDS011;41530;52.382;5.270;2022-09-17T17:47:15;3.40;;;0.80;;
55655;SDS011;41530;52.382;5.270;2022-09-17T17:49:42;4.63;;;0.90;;
55655;SDS011;41530;52.382;5.270;2022-09-17T17:52:09;2.65;;;0.80;;
55655;SDS011;41530;52.382;5.270;2022-09-17T17:54:36;16.02;;;1.00;;
55655;SDS011;41530;52.382;5.270;2022-09-17T17:57:02;1.63;;;0.90;;
55655;SDS011;41530;52.382;5.270;2022-09-17T17:59:29;2.65;;;0.73;;
55655;SDS011;41530;52.382;5.270;2022-09-17T18:01:55;2.65;;;0.63;;
55655;SDS011;41530;52.382;5.270;2022-09-17T18:04:22;1.40;;;0.70;;
55655;SDS011;41530;52.382;5.270;2022-09-17T18:06:49;4.05;;;0.80;;
55655;SDS011;41530;52.382;5.270;2022-09-17T18:09:16;2.85;;;0.77;;
55655;SDS011;41530;52.382;5.270;2022-09-17T18:11:42;2.22;;;0.82;;
55655;SDS011;41530;52.382;5.270;2022-09-17T18:14:10;1.60;;;0.60;;
55655;SDS011;41530;52.382;5.270;2022-09-17T18:16:38;2.83;;;0.88;;
55655;SDS011;41530;52.382;5.270;2022-09-17T18:19:05;2.00;;;0.65;;
55655;SDS011;41530;52.382;5.270;2022-09-17T18:21:32;2.58;;;0.90;;
55655;SDS011;41530;52.382;5.270;2022-09-17T18:23:59;2.58;;;0.57;;
55655;SDS011;41530;52.382;5.270;2022-09-17T18:26:25;3.83;;;0.77;;
55655;SDS011;41530;52.382;5.270;2022-09-17T18:28:53;4.65;;;0.80;;
55655;SDS011;41530;52.382;5.270;2022-09-17T18:31:21;3.55;;;0.80;;
55655;SDS011;41530;52.382;5.270;2022-09-17T18:33:56;1.48;;;0.50;;
55655;SDS011;41530;52.382;5.270;2022-09-17T18:36:28;1.70;;;0.65;;
55655;SDS011;41530;52.382;5.270;2022-09-17T18:38:57;1.83;;;0.75;;
55655;SDS011;41530;52.382;5.270;2022-09-17T18:41:49;1.98;;;0.50;;